Time;durP1;ratioP1;P1;durP2;ratioP2;P2;SDS_P1;SDS_P2;PMS_P1;PMS_P2;Temp;Humidity;BMP_temperature;BMP_pressure;BME280_temperature;BME280_humidity;BME280_pressure;Samples;Min_cycle;Max_cycle;Signal;HPM_P1;HPM_P2
2022/09/12 00:01:19;;;;;;;18.77;15.30;;;;;;;-145.18;100.00;46683.84;4932490;29;20060;-68
2022/09/12 00:03:44;;;;;;;20.57;14.47;;;;;;;-145.18;100.00;46683.84;4932469;29;20134;-67
2022/09/12 00:06:22;;;;;;;22.00;15.53;;;;;;;-145.18;100.00;46646.72;4930554;29;20458;-68
2022/09/12 00:08:47;;;;;;;19.80;15.27;;;;;;;-145.18;100.00;46683.84;4932150;29;20059;-67
2022/09/12 00:11:13;;;;;;;19.60;15.17;;;;;;;-145.18;100.00;46648.69;4932428;29;20770;-67
2022/09/12 00:13:40;;;;;;;19.37;15.70;;;;;;;-145.18;100.00;46646.72;4932287;29;20032;-67
2022/09/12 00:16:07;;;;;;;16.37;14.30;;;;;;;-145.18;100.00;46644.78;4934180;29;20028;-67
2022/09/12 00:18:33;;;;;;;21.23;14.47;;;;;;;-145.18;100.00;46648.69;4935814;29;20039;-67
2022/09/12 00:21:03;;;;;;;19.63;14.70;;;;;;;-145.18;100.00;46681.88;4925532;29;20044;-67
2022/09/12 00:23:29;;;;;;;18.47;15.07;;;;;;;-145.18;100.00;46644.78;4934280;29;20027;-69
2022/09/12 00:25:54;;;;;;;19.93;15.53;;;;;;;-145.18;100.00;46683.84;4936438;29;20397;-67
2022/09/12 00:28:19;;;;;;;21.70;16.00;;;;;;;-145.18;100.00;46683.84;4935721;29;20070;-70
2022/09/12 00:30:47;;;;;;;18.80;15.37;;;;;;;-145.18;100.00;46648.69;4936021;29;20039;-67
2022/09/12 00:33:15;;;;;;;20.97;16.03;;;;;;;-145.18;100.00;46644.78;4935946;29;20035;-70
2022/09/12 00:35:45;;;;;;;21.93;15.93;;;;;;;-145.18;100.00;46683.84;4935932;29;20548;-69
2022/09/12 00:38:12;;;;;;;19.47;15.77;;;;;;;-145.18;100.00;46644.78;4936043;29;20040;-69
2022/09/12 00:40:38;;;;;;;22.37;15.47;;;;;;;-145.18;100.00;46681.88;4935604;29;20024;-69
2022/09/12 00:43:04;;;;;;;25.97;16.27;;;;;;;-145.18;100.00;46681.88;4935745;29;20035;-69
2022/09/12 00:45:30;;;;;;;22.53;17.67;;;;;;;-145.18;100.00;46660.41;4935591;29;20111;-69
2022/09/12 00:48:01;;;;;;;23.23;17.93;;;;;;;-145.18;100.00;46681.88;4935748;29;20035;-69
2022/09/12 00:50:26;;;;;;;25.63;17.80;;;;;;;-145.18;100.00;46679.94;4935700;29;20071;-69
2022/09/12 00:52:56;;;;;;;19.80;16.40;;;;;;;-145.18;100.00;46683.84;4935464;29;20063;-69
2022/09/12 00:55:27;;;;;;;21.10;17.17;;;;;;;-145.18;100.00;46644.78;4935786;29;20078;-69
2022/09/12 00:57:58;;;;;;;23.80;17.23;;;;;;;-145.18;100.00;46679.94;4922650;29;20043;-69
2022/09/12 01:00:26;;;;;;;22.47;17.10;;;;;;;-145.18;100.00;46677.97;4935997;29;20429;-70
2022/09/12 01:03:03;;;;;;;23.50;17.73;;;;;;;-145.18;100.00;46683.84;4934831;29;20052;-69
2022/09/12 01:05:33;;;;;;;23.20;16.83;;;;;;;-145.18;100.00;46679.94;4935931;29;20112;-69
2022/09/12 01:08:01;;;;;;;19.40;15.70;;;;;;;-145.18;100.00;46679.94;4934246;29;20032;-69
2022/09/12 01:10:26;;;;;;;24.10;18.20;;;;;;;-145.18;100.00;46677.97;4935800;29;20075;-69
2022/09/12 01:12:52;;;;;;;21.00;18.03;;;;;;;-145.18;100.00;46660.41;4934865;29;20027;-69
2022/09/12 01:15:18;;;;;;;22.10;16.33;;;;;;;-145.18;100.00;46679.94;4939496;29;20046;-69
2022/09/12 01:17:51;;;;;;;21.20;16.20;;;;;;;-145.18;100.00;46679.94;4934683;29;20484;-69
2022/09/12 01:20:25;;;;;;;18.87;14.90;;;;;;;-145.18;100.00;46681.88;4935425;29;20036;-69
2022/09/12 01:23:31;;;;;;;23.23;17.43;;;;;;;-145.18;100.00;46681.88;4934735;29;20038;-69
2022/09/12 01:26:12;;;;;;;22.88;17.70;;;;;;;-145.18;100.00;46679.94;4923904;29;20071;-69
2022/09/12 01:28:46;;;;;;;22.87;17.83;;;;;;;-145.18;100.00;46660.41;4921666;29;20043;-69
2022/09/12 01:31:32;;;;;;;23.60;19.20;;;;;;;-145.18;100.00;46679.94;4935216;29;20035;-69
2022/09/12 01:34:27;;;;;;;23.10;18.23;;;;;;;-145.18;100.00;46660.41;4935196;29;20023;-69
2022/09/12 01:37:11;;;;;;;26.77;18.23;;;;;;;-145.18;100.00;46679.94;4934210;29;20035;-69
2022/09/12 01:40:11;;;;;;;25.47;18.37;;;;;;;-145.18;100.00;46660.41;4935091;29;20457;-69
2022/09/12 01:42:55;;;;;;;21.50;17.70;;;;;;;-145.18;100.00;46646.72;4934437;29;20517;-69
2022/09/12 01:45:36;;;;;;;26.60;18.67;;;;;;;-145.18;100.00;46679.94;4934834;29;20027;-69
2022/09/12 01:48:09;;;;;;;28.20;20.10;;;;;;;-145.18;100.00;46679.94;4933181;29;20032;-69
2022/09/12 01:50:43;;;;;;;28.40;20.83;;;;;;;-145.18;100.00;46679.94;4934527;29;20078;-69
2022/09/12 01:53:18;;;;;;;29.57;20.63;;;;;;;-145.18;100.00;46679.94;4934657;29;20024;-69
2022/09/12 01:55:58;;;;;;;30.88;20.17;;;;;;;-145.18;100.00;46660.41;4934650;29;20106;-69
2022/09/12 01:58:29;;;;;;;25.40;19.27;;;;;;;-145.18;100.00;46677.97;4934329;29;20040;-69
2022/09/12 02:03:37;;;;;;;23.10;18.27;;;;;;;-145.18;100.00;46679.94;4949607;23;20039;-69
2022/09/12 02:06:09;;;;;;;20.53;16.37;;;;;;;-145.18;100.00;46660.41;4927555;29;20034;-68
2022/09/12 02:08:41;;;;;;;21.63;15.97;;;;;;;-145.18;100.00;46677.97;4921207;29;20526;-69
2022/09/12 02:11:10;;;;;;;21.00;16.07;;;;;;;-145.18;100.00;46660.41;4931112;29;20162;-69
2022/09/12 02:13:41;;;;;;;24.37;18.17;;;;;;;-145.18;100.00;46660.41;4926440;29;20038;-69
2022/09/12 02:16:10;;;;;;;23.67;18.07;;;;;;;-145.18;100.00;46679.94;4933597;29;20102;-69
2022/09/12 02:18:41;;;;;;;26.23;19.13;;;;;;;-145.18;100.00;46679.94;4934189;29;20052;-67
2022/09/12 02:21:07;;;;;;;25.33;20.10;;;;;;;-145.18;100.00;46681.88;4930659;29;20031;-68
2022/09/12 02:23:37;;;;;;;24.63;18.77;;;;;;;-145.18;100.00;46660.41;4924202;29;20035;-67
2022/09/12 02:26:11;;;;;;;25.93;19.23;;;;;;;-145.18;100.00;46679.94;4937094;29;20111;-67
2022/09/12 02:28:40;;;;;;;26.27;19.87;;;;;;;-145.18;100.00;46681.88;4933850;29;20388;-68
2022/09/12 02:31:17;;;;;;;27.77;20.77;;;;;;;-145.18;100.00;46679.94;4916656;29;20039;-67
2022/09/12 02:34:02;;;;;;;28.53;20.90;;;;;;;-145.18;100.00;46681.88;4934002;29;20556;-67
2022/09/12 02:36:30;;;;;;;26.90;21.00;;;;;;;-145.18;100.00;46679.94;4933751;29;20111;-67
2022/09/12 02:38:56;;;;;;;37.47;20.53;;;;;;;-145.18;100.00;46660.41;4940911;28;20023;-67
2022/09/12 02:41:22;;;;;;;31.17;21.30;;;;;;;-145.18;100.00;46660.41;4937276;29;20476;-68
2022/09/12 02:43:50;;;;;;;27.93;21.80;;;;;;;-145.18;100.00;46660.41;4933732;29;20031;-67
2022/09/12 02:46:21;;;;;;;34.53;22.83;;;;;;;-145.18;100.00;46660.41;4933561;29;20393;-67
2022/09/12 02:48:46;;;;;;;30.43;21.33;;;;;;;-145.18;100.00;46660.41;4933081;29;20033;-68
2022/09/12 02:51:12;;;;;;;31.27;21.90;;;;;;;-145.18;100.00;46660.41;4933759;29;20027;-68
2022/09/12 02:53:38;;;;;;;28.83;21.63;;;;;;;-145.18;100.00;46660.41;4933589;29;20122;-67
2022/09/12 02:56:09;;;;;;;31.57;22.13;;;;;;;-145.18;100.00;46660.41;4933496;29;20110;-68
2022/09/12 02:58:35;;;;;;;33.87;23.53;;;;;;;-145.18;100.00;46679.94;4933091;29;20562;-68
2022/09/12 03:01:22;;;;;;;33.57;22.93;;;;;;;-145.18;100.00;46660.41;4931880;29;20122;-67
2022/09/12 03:04:12;;;;;;;28.03;20.90;;;;;;;-145.18;100.00;46677.97;4914082;29;20079;-68
2022/09/12 03:07:03;;;;;;;33.13;22.27;;;;;;;-145.18;100.00;46660.41;4914557;29;20028;-67
2022/09/12 03:09:54;;;;;;;29.17;22.07;;;;;;;-145.18;100.00;46660.41;4887989;29;20103;-68
2022/09/12 03:12:31;;;;;;;34.27;24.50;;;;;;;-145.18;100.00;46660.41;4914052;29;20503;-67
2022/09/12 03:15:18;;;;;;;31.13;23.00;;;;;;;-145.18;100.00;46660.41;4914536;29;20032;-68
2022/09/12 03:18:00;;;;;;;34.13;23.77;;;;;;;-145.18;100.00;46660.41;4914089;29;20048;-68
2022/09/12 03:20:49;;;;;;;31.43;23.03;;;;;;;-145.18;100.00;46679.94;4914058;29;20059;-67
2022/09/12 03:23:29;;;;;;;35.63;22.67;;;;;;;-145.18;100.00;46660.41;4914171;29;20119;-68
2022/09/12 03:26:14;;;;;;;31.20;23.30;;;;;;;-145.18;100.00;46660.41;4914264;29;20027;-67
2022/09/12 03:28:41;;;;;;;29.47;21.13;;;;;;;-145.18;100.00;46660.41;4913980;29;20078;-67
2022/09/12 03:31:18;;;;;;;30.93;21.47;;;;;;;-145.18;100.00;46660.41;4914167;29;20031;-67
2022/09/12 03:33:43;;;;;;;27.50;21.77;;;;;;;-145.18;100.00;46660.41;4913958;29;20032;-67
2022/09/12 03:36:23;;;;;;;28.27;22.37;;;;;;;-145.18;100.00;46679.94;4914109;29;20396;-67
2022/09/12 03:38:49;;;;;;;32.30;22.97;;;;;;;-145.18;100.00;46660.41;4913975;29;20505;-67
2022/09/12 03:41:14;;;;;;;33.43;24.40;;;;;;;-145.18;100.00;46660.41;4913768;29;20139;-67
2022/09/12 03:43:40;;;;;;;30.90;22.83;;;;;;;-145.18;100.00;46660.41;4910273;29;20159;-67
2022/09/12 03:46:05;;;;;;;36.00;23.63;;;;;;;-145.18;100.00;46660.41;4911058;29;20079;-67
2022/09/12 03:48:31;;;;;;;38.30;24.07;;;;;;;-145.18;100.00;46660.41;4912341;29;20040;-67
2022/09/12 03:51:05;;;;;;;36.10;25.33;;;;;;;-145.18;100.00;46677.97;4903244;29;20146;-68
2022/09/12 03:53:31;;;;;;;34.07;23.17;;;;;;;-145.18;100.00;46660.41;4907433;29;20040;-68
2022/09/12 03:55:56;;;;;;;29.93;22.67;;;;;;;-145.18;100.00;46660.41;4917083;29;20047;-68
2022/09/12 03:58:22;;;;;;;34.60;23.67;;;;;;;-145.18;100.00;46660.41;4917406;29;20040;-68
2022/09/12 04:00:48;;;;;;;32.63;22.43;;;;;;;-145.18;100.00;46660.41;4911728;29;20059;-68
2022/09/12 04:03:13;;;;;;;29.73;21.97;;;;;;;-145.18;100.00;46679.94;4903404;29;20551;-68
2022/09/12 04:05:38;;;;;;;32.83;21.53;;;;;;;-145.18;100.00;46660.41;4913489;29;20507;-68
2022/09/12 04:08:04;;;;;;;29.47;22.20;;;;;;;-145.18;100.00;46660.41;4916903;29;20373;-68
2022/09/12 04:10:30;;;;;;;32.83;22.60;;;;;;;-145.18;100.00;46660.41;4917288;29;20087;-68
2022/09/12 04:12:56;;;;;;;32.00;24.00;;;;;;;-145.18;100.00;46660.41;4908312;29;20100;-68
2022/09/12 04:15:21;;;;;;;32.83;23.27;;;;;;;-145.18;100.00;46660.41;4903922;29;20032;-68
2022/09/12 04:17:46;;;;;;;33.07;24.60;;;;;;;-145.18;100.00;46660.41;4910290;29;20054;-68
2022/09/12 04:20:12;;;;;;;34.00;23.37;;;;;;;-145.18;100.00;46660.41;4917190;29;20064;-68
2022/09/12 04:22:37;;;;;;;37.57;25.73;;;;;;;-145.18;100.00;46660.41;4914696;29;20497;-68
2022/09/12 04:25:03;;;;;;;38.97;25.23;;;;;;;-145.18;100.00;46679.94;4915788;29;20067;-68
2022/09/12 04:27:28;;;;;;;38.77;26.03;;;;;;;-145.18;100.00;46660.41;4916298;29;20047;-68
2022/09/12 04:29:54;;;;;;;36.33;26.07;;;;;;;-145.18;100.00;46660.41;4916806;29;20093;-68
2022/09/12 04:32:21;;;;;;;37.73;24.90;;;;;;;-145.18;100.00;46660.41;4916615;29;20032;-68
2022/09/12 04:34:47;;;;;;;33.80;24.83;;;;;;;-145.18;100.00;46660.41;4915459;29;20517;-68
2022/09/12 04:37:12;;;;;;;34.10;24.97;;;;;;;-145.18;100.00;46660.41;4914646;29;20103;-69
2022/09/12 04:39:38;;;;;;;30.87;22.77;;;;;;;-145.18;100.00;46660.41;4916571;29;20136;-69
2022/09/12 04:42:03;;;;;;;35.07;25.17;;;;;;;-145.18;100.00;46660.41;4926838;29;20404;-69
2022/09/12 04:44:30;;;;;;;37.53;24.67;;;;;;;-145.18;100.00;46660.41;4916941;29;20123;-68
2022/09/12 04:46:56;;;;;;;36.23;24.30;;;;;;;-145.18;100.00;46660.41;4916892;29;20031;-69
2022/09/12 04:49:21;;;;;;;35.10;24.93;;;;;;;-145.18;100.00;46660.41;4916014;29;20175;-69
2022/09/12 04:51:46;;;;;;;35.63;24.27;;;;;;;-145.18;100.00;46660.41;4916526;29;20081;-68
2022/09/12 04:54:17;;;;;;;38.60;26.17;;;;;;;-145.18;100.00;46660.41;4916375;29;20062;-69
2022/09/12 04:56:45;;;;;;;37.07;25.17;;;;;;;-145.18;100.00;46660.41;4916603;29;20040;-68
2022/09/12 04:59:13;;;;;;;34.03;24.20;;;;;;;-145.18;100.00;46660.41;4916305;29;20032;-69
2022/09/12 05:01:38;;;;;;;36.03;25.07;;;;;;;-145.18;100.00;46679.94;4916394;29;20036;-69
2022/09/12 05:04:04;;;;;;;39.00;26.10;;;;;;;-145.18;100.00;46660.41;4915312;29;20052;-69
2022/09/12 05:06:35;;;;;;;37.97;24.70;;;;;;;-145.18;100.00;46677.97;4916505;29;20078;-68
2022/09/12 05:09:02;;;;;;;38.37;26.03;;;;;;;-145.18;100.00;46660.41;4916266;29;20059;-69
2022/09/12 05:11:36;;;;;;;36.07;25.00;;;;;;;-145.18;100.00;46660.41;4916559;29;20032;-69
2022/09/12 05:14:02;;;;;;;34.20;24.27;;;;;;;-145.18;100.00;46660.41;4915988;29;20549;-68
2022/09/12 05:16:28;;;;;;;36.93;24.90;;;;;;;-145.18;100.00;46642.81;4915252;29;20032;-68
2022/09/12 05:18:55;;;;;;;38.87;25.73;;;;;;;-145.18;100.00;46660.41;4915826;29;20154;-69
2022/09/12 05:21:24;;;;;;;40.47;26.57;;;;;;;-145.18;100.00;46640.88;4916676;29;20485;-68
2022/09/12 05:23:54;;;;;;;41.10;26.13;;;;;;;-145.18;100.00;46660.41;4916387;29;20115;-68
2022/09/12 05:26:20;;;;;;;38.33;24.93;;;;;;;-145.18;100.00;46660.41;4916452;29;20039;-68
2022/09/12 05:28:47;;;;;;;38.07;24.17;;;;;;;-145.18;100.00;46660.41;4915867;29;20098;-68
2022/09/12 05:31:26;;;;;;;37.43;24.93;;;;;;;-145.18;100.00;46660.41;4915827;29;20032;-68
2022/09/12 05:33:54;;;;;;;37.80;24.60;;;;;;;-145.18;100.00;46660.41;4915828;29;20036;-69
2022/09/12 05:36:25;;;;;;;41.60;25.10;;;;;;;-145.18;100.00;46677.97;4916196;29;20040;-69
2022/09/12 05:38:51;;;;;;;38.10;24.90;;;;;;;-145.18;100.00;46660.41;4915579;29;20036;-68
2022/09/12 05:41:23;;;;;;;39.17;26.30;;;;;;;-145.18;100.00;46660.41;4916017;29;20083;-68
2022/09/12 05:43:52;;;;;;;41.33;26.13;;;;;;;-145.18;100.00;46660.41;4915501;29;20024;-69
2022/09/12 05:46:19;;;;;;;41.37;26.13;;;;;;;-145.18;100.00;46660.41;4916067;29;20024;-69
2022/09/12 05:48:46;;;;;;;39.60;25.83;;;;;;;-145.18;100.00;46677.97;4915851;29;20497;-68
2022/09/12 05:51:18;;;;;;;39.03;25.53;;;;;;;-145.18;100.00;46660.41;4915583;29;20118;-69
2022/09/12 05:53:45;;;;;;;39.43;26.30;;;;;;;-145.18;100.00;46660.41;4914528;29;20040;-69
2022/09/12 05:56:13;;;;;;;37.40;25.50;;;;;;;-145.18;100.00;46660.41;4915653;29;20099;-69
2022/09/12 05:58:41;;;;;;;36.50;25.70;;;;;;;-145.18;100.00;46660.41;4915745;29;20035;-69
2022/09/12 06:01:10;;;;;;;34.97;25.83;;;;;;;-145.18;100.00;46677.97;4915391;29;20519;-69
2022/09/12 06:03:40;;;;;;;35.97;26.07;;;;;;;-145.18;100.00;46660.41;4915199;29;20040;-69
2022/09/12 06:06:06;;;;;;;33.27;24.13;;;;;;;-145.18;100.00;46660.41;4915276;29;20450;-68
2022/09/12 06:08:33;;;;;;;36.60;24.23;;;;;;;-145.18;100.00;46660.41;4915159;29;20043;-69
2022/09/12 06:11:01;;;;;;;34.63;24.37;;;;;;;-145.18;100.00;46660.41;4915313;29;20040;-69
2022/09/12 06:13:26;;;;;;;35.03;23.43;;;;;;;-145.18;100.00;46660.41;4914777;29;20074;-69
2022/09/12 06:15:53;;;;;;;35.53;24.53;;;;;;;-145.18;100.00;46677.97;4914692;29;20044;-68
2022/09/12 06:18:19;;;;;;;34.87;24.97;;;;;;;-145.18;100.00;46660.41;4914417;29;20079;-68
2022/09/12 06:20:46;;;;;;;39.83;25.07;;;;;;;-145.18;100.00;46660.41;4915113;29;20068;-68
2022/09/12 06:23:11;;;;;;;34.60;24.73;;;;;;;-145.18;100.00;46660.41;4914761;29;20048;-69
2022/09/12 06:25:37;;;;;;;39.00;25.57;;;;;;;-145.18;100.00;46660.41;4915288;29;20397;-69
2022/09/12 06:28:03;;;;;;;37.77;26.67;;;;;;;-145.18;100.00;46636.94;4914922;29;20119;-69
2022/09/12 06:30:28;;;;;;;34.97;25.33;;;;;;;-145.18;100.00;46636.94;4915422;29;20092;-68
2022/09/12 06:32:55;;;;;;;36.17;24.53;;;;;;;-145.18;100.00;46633.06;4914603;29;20039;-69
2022/09/12 06:35:22;;;;;;;35.10;25.87;;;;;;;-145.18;100.00;46635.00;4915077;29;20115;-69
2022/09/12 06:37:47;;;;;;;36.07;25.47;;;;;;;-145.18;100.00;46631.09;4914740;29;20063;-69
2022/09/12 06:40:13;;;;;;;38.87;26.80;;;;;;;-145.18;100.00;46635.00;4914804;29;20142;-69
2022/09/12 06:42:38;;;;;;;37.17;25.63;;;;;;;-145.18;100.00;46635.00;4914847;29;20166;-69
2022/09/12 06:45:04;;;;;;;38.70;25.90;;;;;;;-145.18;100.00;46635.00;4914654;29;20047;-69
2022/09/12 06:47:29;;;;;;;37.47;25.53;;;;;;;-145.18;100.00;46636.94;4914852;29;20032;-69
2022/09/12 06:49:54;;;;;;;39.20;26.70;;;;;;;-145.18;100.00;46635.00;4914169;29;20116;-68
2022/09/12 06:52:20;;;;;;;42.10;27.60;;;;;;;-145.18;100.00;46633.06;4914956;29;20441;-68
2022/09/12 06:54:46;;;;;;;43.30;28.40;;;;;;;-145.18;100.00;46640.88;4914281;29;20481;-68
2022/09/12 06:57:11;;;;;;;37.83;27.37;;;;;;;-145.18;100.00;46642.81;4914650;29;20048;-68
2022/09/12 06:59:37;;;;;;;45.60;26.87;;;;;;;-145.18;100.00;46635.00;4914487;29;20114;-69
2022/09/12 07:02:02;;;;;;;37.50;25.83;;;;;;;-145.18;100.00;46631.09;4914235;29;20036;-69
2022/09/12 07:04:28;;;;;;;45.10;27.43;;;;;;;-145.18;100.00;46642.81;4914320;29;20040;-69
2022/09/12 07:06:53;;;;;;;43.90;27.67;;;;;;;-145.18;100.00;46640.88;4914456;29;20032;-69
2022/09/12 07:09:19;;;;;;;44.50;27.40;;;;;;;-145.18;100.00;46636.94;4914183;29;20040;-69
2022/09/12 07:11:45;;;;;;;36.20;26.23;;;;;;;-145.18;100.00;46638.91;4914318;29;20545;-69
2022/09/12 07:14:12;;;;;;;37.13;26.13;;;;;;;-145.18;100.00;46640.88;4913918;29;20226;-68
2022/09/12 07:16:38;;;;;;;37.53;26.87;;;;;;;-145.18;100.00;46636.94;4914641;29;20043;-69
2022/09/12 07:19:05;;;;;;;35.70;26.10;;;;;;;-145.18;100.00;46636.94;4913857;29;20040;-68
2022/09/12 07:21:31;;;;;;;37.03;26.87;;;;;;;-145.18;100.00;46640.88;4914615;29;20032;-69
2022/09/12 07:23:57;;;;;;;38.07;26.97;;;;;;;-145.18;100.00;46638.91;4913468;29;20044;-68
2022/09/12 07:26:26;;;;;;;37.20;26.60;;;;;;;-145.18;100.00;46636.94;4913924;29;20092;-68
2022/09/12 07:28:53;;;;;;;37.47;26.20;;;;;;;-145.18;100.00;46636.94;4913962;29;20047;-69
2022/09/12 07:31:21;;;;;;;38.57;27.07;;;;;;;-145.18;100.00;46635.00;4914370;29;20035;-69
2022/09/12 07:33:46;;;;;;;37.13;27.63;;;;;;;-145.18;100.00;46640.88;4914154;29;20124;-69
2022/09/12 07:36:15;;;;;;;36.27;26.57;;;;;;;-145.18;100.00;46640.88;4914005;29;20103;-69
2022/09/12 07:38:40;;;;;;;34.80;26.73;;;;;;;-145.18;100.00;46642.81;4913696;29;20036;-69
2022/09/12 07:41:14;;;;;;;38.03;26.33;;;;;;;-145.18;100.00;46640.88;4914160;29;20043;-69
2022/09/12 07:43:43;;;;;;;38.87;27.60;;;;;;;-145.18;100.00;46642.81;4913972;29;20044;-69
2022/09/12 07:46:09;;;;;;;43.57;27.00;;;;;;;-145.18;100.00;46644.78;4913956;29;20068;-69
2022/09/12 07:48:35;;;;;;;36.93;25.70;;;;;;;-145.18;100.00;46642.81;4913894;29;20094;-69
2022/09/12 07:51:04;;;;;;;46.20;27.97;;;;;;;-145.18;100.00;46642.81;4913394;29;20032;-69
2022/09/12 07:53:32;;;;;;;39.67;27.50;;;;;;;-145.18;100.00;46638.91;4913755;29;20043;-69
2022/09/12 07:55:58;;;;;;;38.70;28.50;;;;;;;-145.18;100.00;46638.91;4914410;29;20032;-69
2022/09/12 07:58:23;;;;;;;39.30;28.53;;;;;;;-145.18;100.00;46646.72;4913598;29;20079;-69
2022/09/12 08:00:49;;;;;;;38.50;27.13;;;;;;;-145.18;100.00;46646.72;4903918;29;20036;-69
2022/09/12 08:03:15;;;;;;;37.57;25.80;;;;;;;-145.18;100.00;46648.69;4910362;29;20482;-69
2022/09/12 08:05:40;;;;;;;35.43;25.70;;;;;;;-145.18;100.00;46646.72;4914329;29;20079;-69
2022/09/12 08:08:06;;;;;;;33.40;25.53;;;;;;;-145.18;100.00;46652.59;4913452;29;20068;-69
2022/09/12 08:10:31;;;;;;;28.67;23.50;;;;;;;-145.18;100.00;46650.63;4912779;29;20391;-69
2022/09/12 08:12:57;;;;;;;32.17;25.13;;;;;;;-145.18;100.00;46650.63;4911650;29;20028;-69
2022/09/12 08:15:22;;;;;;;34.77;26.03;;;;;;;-145.18;100.00;46654.53;4913076;29;20045;-69
2022/09/12 08:17:48;;;;;;;32.97;25.63;;;;;;;-145.18;100.00;46652.59;4913250;29;20072;-69
2022/09/12 08:20:13;;;;;;;36.47;27.10;;;;;;;-145.18;100.00;46652.59;4916988;29;20044;-69
2022/09/12 08:22:39;;;;;;;34.37;24.87;;;;;;;-145.18;100.00;46652.59;4912592;29;20083;-69
2022/09/12 08:25:05;;;;;;;35.63;26.03;;;;;;;-145.18;100.00;46654.53;4912917;29;20127;-69
2022/09/12 08:27:31;;;;;;;31.67;24.17;;;;;;;-145.18;100.00;46658.44;4913493;29;20127;-69
2022/09/12 08:29:56;;;;;;;32.77;25.43;;;;;;;-145.18;100.00;46656.50;4912951;29;20123;-69
2022/09/12 08:32:21;;;;;;;32.67;23.13;;;;;;;-145.18;100.00;46656.50;4913616;29;20028;-69
2022/09/12 08:34:47;;;;;;;34.03;24.97;;;;;;;-145.18;100.00;46664.31;4912925;29;20479;-70
2022/09/12 08:37:12;;;;;;;31.50;22.80;;;;;;;-145.18;100.00;46660.41;4914872;29;20066;-69
2022/09/12 08:39:37;;;;;;;30.73;22.53;;;;;;;-145.18;100.00;46664.31;4916589;29;20047;-69
2022/09/12 08:42:05;;;;;;;26.77;21.63;;;;;;;-145.18;100.00;46668.22;4916765;29;20405;-69
2022/09/12 08:44:36;;;;;;;28.03;21.97;;;;;;;-145.18;100.00;46668.22;4911102;29;20633;-69
2022/09/12 08:47:17;;;;;;;26.63;21.23;;;;;;;-145.18;100.00;46672.13;4916380;29;20040;-69
2022/09/12 08:49:52;;;;;;;31.40;21.43;;;;;;;-145.18;100.00;46672.13;4916105;29;20025;-69
2022/09/12 08:52:24;;;;;;;27.88;21.45;;;;;;;-145.18;100.00;46666.25;4917127;29;20024;-69
2022/09/12 08:54:50;;;;;;;25.83;19.87;;;;;;;-145.18;100.00;46672.13;4915825;29;20721;-69
2022/09/12 08:57:16;;;;;;;27.87;19.87;;;;;;;-145.18;100.00;46670.16;4916213;29;20047;-69
2022/09/12 08:59:43;;;;;;;30.43;21.27;;;;;;;-145.18;100.00;46672.13;4915749;29;20048;-69
2022/09/12 09:02:46;;;;;;;26.03;20.23;;;;;;;-145.18;100.00;46670.16;4915737;29;20044;-69
2022/09/12 09:05:19;;;;;;;23.80;17.33;;;;;;;-145.18;100.00;46656.50;4916057;29;20040;-69
2022/09/12 09:08:12;;;;;;;23.13;18.17;;;;;;;-145.18;100.00;46662.34;4917071;29;20035;-69
2022/09/12 09:10:38;;;;;;;22.93;18.20;;;;;;;-145.18;100.00;46658.44;4905402;29;20040;-69
2022/09/12 09:16:38;;;;;;;22.15;18.48;;;;;;;-145.18;100.00;46660.41;4915093;29;20513;-69
2022/09/12 09:19:10;;;;;;;25.83;17.87;;;;;;;-145.18;100.00;46650.63;4915976;29;20474;-69
2022/09/12 09:21:56;;;;;;;22.43;17.80;;;;;;;-145.18;100.00;46660.41;4916276;29;20040;-69
2022/09/12 09:24:30;;;;;;;22.60;16.97;;;;;;;-145.18;100.00;46642.81;4915775;29;20087;-69
2022/09/12 09:26:59;;;;;;;24.60;16.20;;;;;;;-145.18;100.00;46636.94;4916218;29;20047;-69
2022/09/12 09:29:32;;;;;;;18.63;15.60;;;;;;;-145.18;100.00;46595.94;4915669;29;20084;-69
2022/09/12 09:31:59;;;;;;;18.40;15.67;;;;;;;-145.18;100.00;46566.63;4915502;29;20083;-69
2022/09/12 09:34:30;;;;;;;19.97;15.03;;;;;;;-145.18;100.00;46554.91;4914941;29;20067;-69
2022/09/12 09:37:07;;;;;;;17.77;14.73;;;;;;;-145.18;100.00;46549.06;4916199;29;20107;-69
2022/09/12 09:39:47;;;;;;;21.83;14.83;;;;;;;-145.18;100.00;46547.09;4915538;29;20031;-69
2022/09/12 09:42:18;;;;;;;17.33;13.37;;;;;;;-145.18;100.00;46543.19;4915103;29;20024;-69
2022/09/12 09:44:47;;;;;;;22.03;14.07;;;;;;;-145.18;100.00;46541.25;4915010;29;20074;-70
2022/09/12 09:47:12;;;;;;;16.17;12.40;;;;;;;-145.18;100.00;46549.06;4905716;29;20051;-69
2022/09/12 09:49:38;;;;;;;16.93;11.33;;;;;;;-145.18;100.00;46543.19;4911534;29;20032;-69
2022/09/12 09:52:07;;;;;;;15.67;10.43;;;;;;;-145.18;100.00;46551.00;4915424;29;20031;-70
2022/09/12 09:54:32;;;;;;;15.73;10.43;;;;;;;-145.18;100.00;46552.97;4915240;29;20082;-69
2022/09/12 09:56:57;;;;;;;16.47;9.87;;;;;;;-145.18;100.00;46549.06;4915112;29;20028;-70
2022/09/12 09:59:28;;;;;;;13.33;8.40;;;;;;;-145.18;100.00;46562.72;4914499;29;20051;-69
2022/09/12 10:02:02;;;;;;;13.03;9.70;;;;;;;-145.18;100.00;46552.97;4915150;29;20028;-70
2022/09/12 10:04:34;;;;;;;13.43;9.13;;;;;;;-145.18;100.00;46562.72;4915053;29;20457;-69
2022/09/12 10:07:03;;;;;;;10.37;8.97;;;;;;;-145.18;100.00;46551.00;4915194;29;20111;-69
2022/09/12 10:09:34;;;;;;;11.93;8.13;;;;;;;-145.18;100.00;46566.63;4914800;29;20398;-69
2022/09/12 10:12:20;;;;;;;9.40;7.60;;;;;;;-145.18;100.00;46552.97;4915172;29;20036;-70
2022/09/12 10:15:03;;;;;;;11.32;8.00;;;;;;;-145.18;100.00;46556.88;4915165;29;20036;-70
2022/09/12 10:17:38;;;;;;;9.47;6.67;;;;;;;-145.18;100.00;46582.25;4915273;29;20032;-70
2022/09/12 10:20:04;;;;;;;9.75;7.70;;;;;;;-145.18;100.00;46593.97;4914818;29;20040;-70
2022/09/12 10:22:30;;;;;;;10.23;7.20;;;;;;;-145.18;100.00;46582.25;4915015;29;20146;-70
2022/09/12 10:24:59;;;;;;;13.27;7.23;;;;;;;-145.18;100.00;46603.75;4914748;29;20120;-69
2022/09/12 10:27:29;;;;;;;9.07;7.73;;;;;;;-145.18;100.00;46588.13;4914895;29;20119;-69
2022/09/12 10:30:02;;;;;;;11.43;7.67;;;;;;;-145.18;100.00;46586.16;4915089;29;20035;-69
2022/09/12 10:32:35;;;;;;;11.43;7.50;;;;;;;-145.18;100.00;46578.34;4912284;29;20384;-70
2022/09/12 10:35:17;;;;;;;8.53;7.10;;;;;;;-145.18;100.00;46584.22;4911214;29;20035;-69
2022/09/12 10:37:54;;;;;;;8.03;6.63;;;;;;;-145.18;100.00;46586.16;4913937;29;21708;-70
2022/09/12 10:40:23;;;;;;;8.13;7.33;;;;;;;-145.18;100.00;46722.91;4914611;29;20028;-70
2022/09/12 10:42:48;;;;;;;10.40;7.23;;;;;;;-145.18;100.00;47119.47;4913985;29;20099;-70
2022/09/12 10:45:40;;;;;;;9.37;6.30;;;;;;;-145.18;100.00;47180.03;4913961;29;20581;-70
2022/09/12 10:48:30;;;;;;;9.77;6.33;;;;;;;-145.18;100.00;47123.38;4909813;29;20063;-70
2022/09/12 10:50:56;;;;;;;9.77;7.67;;;;;;;-145.18;100.00;47160.47;4914710;29;20127;-70
2022/09/12 10:53:24;;;;;;;9.90;7.20;;;;;;;-145.18;100.00;47176.09;4914034;29;20103;-70
2022/09/12 10:56:01;;;;;;;8.17;6.43;;;;;;;-145.18;100.00;47158.53;4913754;29;20040;-69
2022/09/12 10:58:27;;;;;;;11.70;7.23;;;;;;;-145.18;100.00;47097.97;4913357;29;20392;-69
2022/09/12 11:01:05;;;;;;;9.20;6.83;;;;;;;-145.18;100.00;47094.06;4913083;29;20032;-69
2022/09/12 11:04:15;;;;;;;9.13;6.77;;;;;;;-145.18;100.00;47068.66;4914288;29;20139;-69
2022/09/12 11:06:52;;;;;;;12.90;7.00;;;;;;;-145.18;100.00;47047.19;4892294;29;20036;-69
2022/09/12 11:09:31;;;;;;;8.07;6.47;;;;;;;-145.18;100.00;47035.44;4913390;29;20401;-70
2022/09/12 11:11:57;;;;;;;11.57;6.47;;;;;;;-145.18;100.00;47047.19;4913507;29;20103;-69
2022/09/12 11:14:49;;;;;;;7.90;6.47;;;;;;;-145.18;100.00;47029.59;4913965;29;20102;-69